Date,TemperatureHighF,TemperatureAvgF,TemperatureLowF,DewpointHighF,DewpointAvgF,DewpointLowF,HumidityHigh,HumidityAvg,HumidityLow,PressureMaxIn,PressureMinIn,WindSpeedMaxMPH,WindSpeedAvgMPH,GustSpeedMaxMPH,PrecipitationSumIn
2013-1-1,79.7,75.3,68.5,63.2,61.3,57.1,68,62,57,30.20,30.05,20,4,20,0.00
2013-1-2,81.7,75.5,63.4,65.5,61.3,46.8,66,61,53,30.10,30.00,11,2,11,0.00
2013-1-3,84.8,78.2,67.5,67.5,62.9,44.2,65,59,42,30.12,30.03,13,2,13,0.00
2013-1-4,82.7,75.8,66.6,68.3,54.8,33.9,63,49,28,30.22,30.12,9,2,9,0.00
2013-1-5,80.8,74.5,69.9,62.8,43.0,-8.6,55,35,4,30.25,30.16,12,2,12,0.00
2013-1-6,84.2,78.6,70.6,69.7,51.9,-18.4,62,45,2,30.17,30.06,15,3,16,0.03
2013-1-7,78.8,72.6,66.9,62.2,18.2,-33.3,57,16,3,30.17,30.08,12,2,12,0.07
2013-1-8,84.5,78.7,69.5,68.8,42.0,-30.7,60,35,4,30.20,30.11,15,2,15,0.07
2013-1-9,83.8,78.9,73.9,68.2,42.4,-19.6,60,36,2,30.27,30.20,18,3,18,0.00
2013-1-10,82.7,77.8,73.7,66.8,57.6,45.7,62,51,36,30.26,30.18,17,2,17,0.00
2013-1-11,83.3,77.8,70.2,67.9,52.8,-4.3,61,46,5,30.24,30.16,16,2,16,0.01
2013-1-12,83.8,77.1,69.1,67.7,48.8,-33.0,61,44,3,30.19,30.09,15,2,15,0.00
2013-1-13,84.4,78.1,70.5,67.5,58.3,-3.7,61,52,5,30.13,30.09,16,2,16,0.00
2013-1-14,83.8,76.4,66.8,65.8,44.6,-36.7,61,43,1,30.18,30.12,15,2,15,0.00
2013-1-15,82.7,77.6,69.9,67.4,54.7,-19.8,61,48,2,30.14,30.06,15,2,15,0.00
2013-1-24,83.4,74.5,68.9,78.3,54.4,51.6,91,50,39,30.26,30.22,12,0,12,0.01
2013-1-25,81.5,74.1,63.5,57.7,54.6,51.8,70,51,39,30.30,30.18,11,2,11,0.05
2013-1-26,80.0,72.8,59.6,61.1,57.5,51.0,87,60,45,30.26,30.16,11,2,11,0.00
2013-1-27,82.5,76.6,64.9,63.8,61.3,59.1,83,60,49,30.28,30.22,15,3,15,0.00
2013-1-28,83.0,78.8,69.7,64.7,63.0,60.5,78,59,49,30.32,30.22,15,3,15,0.00
2013-1-29,84.0,76.6,68.0,69.4,67.0,64.5,92,73,57,30.23,30.12,18,3,18,0.00
2013-1-30,80.8,76.9,70.8,67.6,65.1,63.3,81,67,59,30.11,29.97,20,5,20,0.00
2013-1-31,73.0,66.0,62.8,70.9,59.1,53.2,95,79,65,30.16,29.97,21,5,21,0.00
2013-2-1,69.4,63.5,60.2,54.9,52.8,50.1,72,68,56,30.25,30.22,15,5,15,0.00
2013-2-2,79.3,65.5,56.2,55.7,49.2,37.1,83,57,37,30.27,30.12,13,2,13,0.00
2013-2-3,73.7,64.8,56.2,56.9,49.6,34.9,93,62,26,30.18,30.08,15,4,15,0.00
2013-2-4,77.3,68.0,52.3,55.5,49.2,39.9,72,52,33,30.16,30.03,14,2,14,0.00
2013-2-5,80.5,76.2,66.4,62.2,58.7,55.0,70,55,44,30.09,30.01,10,2,10,0.00
2013-2-7,85.0,78.9,64.7,66.2,63.5,60.5,93,60,47,30.08,29.95,13,3,13,0.00
2013-2-8,83.7,77.2,69.0,70.6,69.0,67.2,95,77,60,30.04,29.95,16,4,16,0.00
2013-2-9,84.5,74.2,63.0,67.8,64.6,62.1,98,73,50,30.14,30.06,15,2,15,0.00
2013-2-12,86.8,79.3,66.5,68.9,66.4,62.1,94,66,47,30.12,29.97,15,5,15,0.00
2013-2-13,85.0,79.3,71.1,71.9,70.3,66.4,96,75,56,30.02,29.94,17,6,17,0.04
2013-2-14,88.0,74.7,63.2,72.5,68.0,61.2,95,81,54,30.02,29.86,31,6,31,0.29
2013-2-15,72.7,67.8,65.1,68.0,65.4,63.3,97,92,82,30.03,29.95,11,2,11,0.30
2013-2-16,73.5,65.4,54.8,63.5,55.0,44.4,96,71,38,30.10,29.89,24,6,24,0.01
2013-2-17,58.1,52.0,45.7,47.1,30.4,18.9,79,46,26,30.30,30.09,25,8,25,0.00
2013-2-18,69.2,67.6,65.7,53.4,51.6,49.6,64,56,51,30.25,30.23,11,2,13,0.00
2013-2-19,80.7,73.5,60.0,66.4,63.1,55.9,88,71,58,30.20,30.09,15,3,15,0.00
2013-2-20,84.5,75.2,65.7,66.8,63.6,58.2,95,69,45,30.12,30.01,13,2,13,0.00
2013-2-21,85.4,77.3,65.9,67.7,65.8,64.0,95,69,52,30.10,30.02,12,2,12,0.00
2013-2-23,85.6,80.3,74.2,72.3,70.9,68.2,91,74,60,30.03,29.92,17,5,17,0.00
2013-2-24,89.0,81.4,73.6,73.3,69.1,62.9,96,68,45,30.00,29.90,14,3,14,0.00
2013-2-26,85.8,81.9,75.5,72.7,70.2,67.6,87,68,59,29.90,29.81,25,8,25,0.00
2013-2-27,75.2,69.9,66.2,66.5,64.9,61.8,94,85,64,29.98,29.90,12,3,12,0.29
2013-2-28,70.2,65.4,60.5,56.5,53.4,47.8,84,66,46,30.02,29.92,14,4,15,0.00
2013-3-1,65.3,62.4,60.5,56.5,51.6,47.2,84,68,59,29.99,29.92,15,4,15,0.01
2013-3-2,66.0,58.7,53.2,45.7,43.0,37.5,72,57,42,30.05,29.97,24,6,24,0.00
2013-3-3,61.4,55.1,50.4,46.7,43.7,40.1,84,66,47,30.10,29.98,24,5,24,0.02
2013-3-4,72.0,58.9,43.3,43.0,37.0,31.2,80,47,26,30.23,30.13,18,4,18,0.00
2013-3-6,77.0,64.0,52.4,58.7,44.4,34.3,90,52,31,30.12,29.97,22,7,22,0.00
2013-3-7,72.5,58.2,46.8,49.1,41.9,37.5,80,57,34,30.19,30.08,13,4,16,0.00
2013-3-8,78.6,68.4,52.0,53.5,48.4,41.4,92,52,28,30.21,30.11,15,3,15,0.00
2013-3-9,79.3,71.3,55.1,57.8,55.0,51.6,88,58,43,30.20,30.12,16,3,16,0.00
2013-3-10,79.6,74.6,65.0,59.2,55.4,52.5,66,51,43,30.15,30.07,15,3,15,0.00
2013-3-11,78.8,74.2,66.5,62.2,60.0,57.0,76,62,53,30.07,29.96,16,3,16,0.00
2013-3-12,78.1,75.0,71.0,66.7,65.9,64.5,83,73,64,30.01,29.93,16,5,16,0.00
2013-3-13,75.8,67.2,56.6,56.9,51.7,43.0,92,61,33,30.12,30.02,18,6,18,0.00
2013-3-14,73.3,65.0,56.2,50.0,42.6,33.0,77,46,24,30.22,30.12,20,6,20,0.00
2013-3-15,78.4,63.8,53.6,53.0,49.2,44.8,87,62,35,30.26,30.15,15,3,15,0.00
2013-3-16,80.5,66.9,54.9,56.3,53.7,49.0,94,66,40,30.20,30.09,12,2,12,0.00
2013-3-17,80.8,73.4,59.3,60.3,58.3,55.7,89,61,46,30.16,30.03,16,3,16,0.00
2013-3-18,82.0,76.4,66.8,69.9,66.8,62.8,91,73,60,30.08,29.97,17,4,17,0.04
2013-3-19,81.3,74.7,70.2,70.4,67.7,64.7,96,80,60,30.03,29.84,21,3,21,0.07
2013-3-20,85.7,77.0,64.2,68.8,63.9,58.6,97,67,47,29.99,29.81,16,3,16,0.00
2013-3-21,75.5,69.2,62.2,60.3,51.1,44.0,93,56,37,29.95,29.88,15,6,15,0.00
2013-3-23,88.8,81.5,72.0,73.9,70.7,67.8,96,72,52,29.97,29.81,17,5,17,0.02
2013-3-24,88.7,83.0,75.0,73.5,71.7,69.5,94,70,56,29.80,29.71,32,11,32,0.00
2013-3-25,78.0,74.4,71.3,72.1,59.3,43.1,94,62,37,29.95,29.76,17,6,17,0.00
2013-3-26,58.5,54.2,51.4,38.5,36.9,34.2,61,52,43,30.23,30.16,12,5,15,0.00
2013-3-27,69.0,56.3,45.6,44.0,40.0,35.4,81,56,35,30.27,30.18,21,5,21,0.00
2013-3-28,77.5,65.2,49.8,49.7,44.3,35.6,86,50,24,30.28,30.17,14,4,14,0.00
2013-3-29,79.0,71.2,58.2,53.5,50.3,46.1,68,48,37,30.30,30.21,19,4,19,0.00
2013-3-30,81.2,71.4,58.6,56.0,52.5,46.8,85,54,33,30.27,30.17,12,2,13,0.00
2013-3-31,82.9,79.1,74.0,66.0,64.5,61.9,76,61,51,30.09,30.05,16,4,16,0.00
2013-4-1,80.3,76.8,74.0,67.8,65.8,64.5,75,69,62,30.03,29.96,13,4,14,0.00
2013-4-2,89.0,77.1,64.7,67.1,65.0,62.0,97,69,46,30.10,30.01,10,2,10,0.00
2013-4-3,87.3,82.6,74.3,69.0,67.5,65.4,83,61,51,30.07,29.99,22,4,22,0.00
2013-4-4,86.0,78.0,66.7,71.9,69.3,64.9,96,76,57,30.03,29.91,25,6,25,0.84
2013-4-5,72.7,68.6,66.0,67.8,65.5,63.3,97,90,79,29.97,29.83,10,0,11,1.30
2013-4-6,82.2,72.1,58.6,65.6,61.2,56.5,94,70,55,30.07,29.97,1,0,1,0.00
2013-4-7,80.3,75.2,69.4,67.2,64.0,61.9,89,69,57,30.15,30.06,11,1,11,0.02
2013-4-8,88.0,81.6,64.4,63.5,60.6,55.6,90,50,35,30.13,30.06,12,2,12,0.00
2013-4-9,84.5,79.5,69.1,69.6,66.9,63.7,91,66,51,30.15,30.08,14,3,14,0.00
2013-4-10,86.8,80.4,77.5,72.0,71.4,69.2,83,75,59,30.01,30.00,13,4,15,0.03
2013-4-11,86.5,81.2,75.3,73.3,71.7,70.6,86,73,62,30.02,29.90,20,5,20,0.00
2013-4-12,89.7,84.6,78.9,80.7,74.6,73.2,85,72,61,29.95,29.86,22,5,22,0.17
2013-4-13,85.2,80.1,75.5,75.5,72.5,69.6,92,78,65,29.98,29.89,17,3,17,0.07
2013-4-14,90.7,85.1,78.9,74.4,72.8,70.3,85,67,54,29.97,29.89,18,4,18,0.07
2013-4-15,94.2,82.1,72.5,76.6,73.5,69.1,93,77,50,30.06,29.93,17,3,17,0.17
2013-4-16,90.3,84.0,78.0,76.6,74.2,71.9,86,73,58,30.11,30.05,14,2,14,0.17
2013-4-17,89.0,82.9,73.9,71.5,70.0,68.2,90,66,53,30.11,30.02,16,3,16,0.00
2013-4-18,91.4,84.9,73.6,72.8,70.7,67.3,87,63,48,30.06,29.98,16,3,16,0.00
2013-4-20,94.0,82.2,72.7,75.6,71.7,65.8,95,73,42,30.04,29.94,33,3,33,1.09
2013-4-21,89.5,80.5,72.2,74.1,72.3,68.4,94,78,57,30.09,29.99,16,3,17,0.31
2013-4-22,85.7,74.3,69.2,72.2,69.8,66.5,95,87,61,30.06,29.92,17,2,17,0.78
2013-4-23,86.3,76.0,67.0,70.2,66.6,61.9,97,75,49,30.06,29.96,19,5,19,0.01
2013-4-24,87.3,82.0,76.8,65.7,64.6,63.7,65,56,47,30.11,30.07,10,2,10,0.00
2013-4-25,88.0,82.8,71.5,64.8,61.4,58.8,77,49,40,30.18,30.13,16,3,16,0.00
2013-4-26,87.3,81.8,72.8,65.7,64.3,61.3,75,56,46,30.22,30.16,16,3,16,0.00
2013-4-27,87.3,81.8,70.4,67.5,63.6,60.0,77,55,43,30.17,30.08,15,3,15,0.00
2013-4-28,84.5,80.7,76.2,64.3,63.1,61.7,63,55,49,30.02,30.00,11,2,15,0.00
2013-4-29,86.8,78.9,74.1,73.1,70.7,67.6,89,77,57,30.03,29.94,16,3,16,0.01
2013-4-30,84.9,76.1,70.2,73.1,70.4,68.1,95,83,64,30.01,29.95,21,2,21,0.92
2013-5-1,89.0,79.4,71.5,74.7,72.3,68.6,95,80,58,30.00,29.91,16,2,16,0.21
2013-5-2,83.0,73.4,69.2,73.6,69.6,68.3,97,89,66,29.90,29.79,18,4,18,2.34
2013-5-3,90.5,77.9,68.9,74.6,69.1,64.3,97,76,44,29.80,29.68,18,4,18,0.99
2013-5-4,87.7,80.6,70.0,70.5,68.0,65.3,95,67,49,29.77,29.69,18,6,18,0.99
2013-5-5,81.4,76.7,69.4,67.7,62.3,55.7,94,63,45,29.92,29.84,16,6,16,0.00
2013-5-6,85.1,78.4,63.6,66.0,60.8,56.6,88,56,40,30.03,29.92,17,5,17,0.00
2013-5-7,84.3,77.0,65.4,63.2,60.8,56.9,89,59,41,30.07,29.98,19,6,19,0.00
2013-5-8,86.3,81.7,74.3,65.8,59.9,55.4,64,48,41,30.15,30.05,18,4,18,0.00
2013-5-9,92.8,82.3,68.4,75.9,69.5,61.8,88,67,44,30.14,30.06,13,2,13,0.01
2013-5-10,93.5,82.3,73.3,75.1,72.2,68.1,92,73,48,30.14,30.02,16,2,16,0.01
2013-5-11,92.0,84.0,73.3,77.0,73.3,67.4,94,71,56,30.06,29.98,32,5,32,0.72
2013-5-12,91.3,83.2,74.5,75.1,72.6,68.2,96,72,51,30.04,29.95,18,4,18,0.01
2013-5-13,88.2,83.3,75.0,73.7,71.2,67.0,94,68,53,30.09,30.02,17,5,17,0.01
2013-5-14,85.8,80.5,72.1,65.6,60.0,55.3,80,50,40,30.17,30.11,18,4,18,0.00
2013-5-15,87.2,81.4,69.2,65.1,61.4,56.5,82,52,38,30.19,30.09,15,3,17,0.00
2013-5-16,89.2,83.6,75.1,65.9,62.6,59.8,69,50,41,30.11,30.04,14,2,14,0.00
2013-5-17,92.9,84.8,73.8,72.9,69.2,63.2,83,61,40,30.08,30.03,13,2,13,0.00
2013-5-18,89.0,83.0,79.4,75.3,72.0,70.5,80,70,59,30.08,30.03,15,3,16,0.01
2013-5-19,92.7,85.0,73.1,72.8,70.0,66.7,91,62,45,30.10,30.00,12,2,12,0.00
2013-5-20,82.0,75.9,70.6,76.2,72.8,68.3,96,90,75,30.07,29.98,13,1,25,1.64
2013-5-21,88.3,77.6,70.8,75.6,72.1,68.9,97,84,61,30.05,29.93,16,1,16,0.04
2013-5-22,86.2,79.1,73.3,78.8,73.4,66.5,94,83,61,29.97,29.89,11,1,23,0.26
2013-5-23,94.5,85.8,75.9,75.8,72.2,66.3,94,66,42,30.01,29.94,10,1,10,0.01
2013-5-24,94.0,84.8,74.6,76.4,72.3,59.3,96,67,44,30.05,30.00,24,3,24,0.06
2013-5-25,89.0,85.2,79.8,67.8,66.1,63.8,65,53,47,30.14,30.10,22,5,22,0.01
2013-5-26,90.7,83.8,72.9,68.8,66.1,62.1,80,56,43,30.17,30.11,14,3,14,0.01
2013-5-28,87.0,81.7,76.8,74.8,73.5,71.5,92,76,64,30.10,30.04,15,2,15,1.34
2013-5-29,84.5,76.6,71.8,75.6,72.8,69.4,97,88,73,30.09,30.02,22,3,22,2.47
2013-5-30,86.3,80.3,74.6,78.3,73.6,70.5,94,80,68,30.08,30.00,13,1,13,0.37
2013-5-31,76.5,75.9,75.5,74.0,73.5,73.0,93,92,92,30.03,30.02,5,0,5,0.02
2013-6-13,86.1,82.5,73.6,76.8,74.6,69.4,90,77,69,30.07,29.95,16,2,16,0.46
2013-6-14,91.9,87.6,78.0,76.5,73.8,71.4,87,65,54,29.92,29.89,16,4,16,0.07
2013-6-15,97.3,87.2,77.3,77.0,73.3,67.9,95,65,44,30.04,29.98,10,2,10,0.11
2013-6-16,96.7,89.7,77.2,77.7,75.4,71.7,92,64,47,30.08,30.01,13,2,13,0.00
2013-6-21,96.5,93.5,87.0,73.8,71.4,68.7,65,49,43,30.10,30.05,12,2,13,0.00
2013-6-22,96.3,90.0,81.2,76.1,73.3,69.7,81,59,45,30.10,30.04,14,2,14,0.00
2013-6-23,94.5,86.2,75.3,78.4,74.3,71.7,93,69,50,30.12,30.06,17,2,17,0.39
2013-6-24,94.3,87.9,76.8,76.6,74.2,71.5,92,65,51,30.17,30.08,15,3,15,0.11
2013-6-26,96.8,88.4,77.6,78.6,74.4,69.1,94,65,44,30.08,30.02,13,3,13,0.07
2013-6-27,93.0,83.9,75.4,77.1,75.1,71.3,93,76,57,30.06,29.96,18,1,18,0.79
2013-6-28,96.0,87.6,78.0,76.9,74.1,70.5,93,66,46,29.98,29.87,19,3,19,0.01
2013-6-29,96.7,85.4,78.5,77.6,74.7,68.2,93,72,46,29.91,29.84,17,3,17,0.04
2013-6-30,88.7,83.5,78.8,78.6,75.6,72.1,89,78,64,29.92,29.87,25,6,25,0.47
2013-7-1,91.1,84.2,76.4,79.1,75.4,71.7,92,76,59,30.01,29.94,20,5,20,0.28
2013-7-2,91.3,82.6,77.2,79.8,76.9,73.4,93,83,66,30.09,29.98,16,2,16,0.09
2013-7-3,90.9,86.2,78.6,77.9,75.9,73.1,90,72,61,30.12,30.06,22,5,22,0.04
2013-7-4,93.8,87.4,78.2,79.0,75.3,72.0,90,68,51,30.14,30.07,21,4,21,0.32
2013-7-5,87.7,83.9,79.0,79.2,76.6,73.6,89,79,67,30.14,30.05,17,3,17,0.39
2013-7-6,93.2,87.5,80.7,77.9,74.7,72.1,83,66,53,30.10,30.03,21,4,21,0.02
2013-7-7,91.4,85.8,78.7,80.0,75.2,72.5,90,71,59,30.10,30.02,16,3,17,0.07
2013-7-8,94.5,89.0,79.5,74.9,73.1,69.4,83,60,50,30.15,30.07,13,2,14,0.00
2013-7-9,91.3,84.9,78.0,75.3,72.6,69.5,88,68,51,30.14,30.05,13,2,13,0.00
2013-7-10,91.5,82.4,76.2,76.5,74.4,69.5,92,78,58,30.09,30.01,13,2,13,0.00
2013-7-11,95.7,86.0,76.8,78.1,74.4,69.9,94,70,48,30.02,29.94,15,2,16,0.02
2013-7-12,91.0,82.9,78.0,77.2,74.2,69.3,92,76,51,29.99,29.91,19,2,19,0.23
2013-7-13,88.0,78.1,72.5,75.8,73.3,70.8,96,86,63,30.03,29.95,17,3,17,2.03
2013-7-14,94.2,85.8,72.4,76.4,73.5,70.2,96,68,52,30.10,30.02,22,4,22,0.47
2013-7-15,95.3,86.0,74.8,76.5,73.0,69.6,95,67,47,30.09,30.01,16,2,16,0.14
2013-7-16,86.5,79.2,72.9,76.2,72.6,68.7,95,81,61,30.16,30.06,17,3,17,0.85
2013-7-17,80.6,75.0,72.5,76.7,73.4,71.3,97,95,84,30.16,30.05,15,1,15,2.15
2013-7-18,89.0,79.2,73.0,79.2,74.2,70.3,97,86,66,30.14,30.08,23,2,23,0.28
2013-7-19,93.3,86.0,74.4,79.1,76.5,72.9,97,74,55,30.14,30.05,16,3,16,0.01
2013-7-20,88.0,83.0,79.4,80.0,78.2,75.6,93,86,71,30.11,30.05,12,2,12,0.18
2013-7-21,93.4,85.9,78.3,78.8,77.4,75.6,94,77,59,30.14,30.05,15,2,15,0.00
2013-7-22,96.3,87.7,78.2,77.8,74.8,69.5,92,67,47,30.15,30.07,12,2,12,0.00
2013-7-28,90.9,85.6,81.8,76.4,74.8,72.8,82,71,59,30.05,30.01,14,4,14,0.14
2013-7-29,96.5,87.7,77.7,78.9,76.5,73.6,94,71,50,30.12,30.05,11,1,11,0.00
2013-7-30,96.5,88.9,78.4,80.7,77.1,74.4,93,69,53,30.17,30.08,13,2,13,0.08
2013-7-31,95.6,89.5,79.3,78.6,75.9,73.2,92,65,51,30.11,30.00,15,3,15,0.00
2013-8-1,94.9,90.3,80.5,75.8,74.5,70.6,82,60,52,30.02,29.94,13,3,13,0.00
2013-8-3,90.5,79.8,73.3,78.7,75.4,69.9,96,87,66,30.16,30.08,30,2,30,0.98
2013-8-4,94.0,85.3,77.6,77.8,74.6,70.5,93,73,48,30.11,29.99,14,3,14,0.05
2013-8-5,80.9,80.2,79.5,78.4,77.7,77.0,92,92,92,30.03,30.02,1,1,3,0.00
2013-8-6,91.3,86.3,81.8,78.7,77.9,76.3,89,77,64,29.98,29.96,5,1,5,0.00
2013-8-11,96.3,92.0,84.5,77.5,76.0,73.5,77,60,51,30.14,30.06,13,3,15,2.48
2013-8-12,95.0,89.6,78.7,76.4,74.7,72.1,87,63,51,30.09,30.03,15,3,15,0.00
2013-8-13,96.8,90.6,79.7,77.8,73.9,69.6,87,59,46,30.03,29.96,13,3,13,0.00
2013-8-14,97.5,90.8,79.4,76.8,74.0,71.1,89,59,47,30.00,29.93,14,2,15,0.00
2013-8-15,89.8,84.3,80.8,79.2,77.2,75.4,90,80,65,30.04,29.97,12,2,12,0.04
2013-8-16,97.3,89.7,79.2,79.9,77.1,73.0,94,68,48,30.05,29.98,13,2,13,0.00
2013-8-17,96.8,88.7,82.0,78.4,76.9,74.8,85,69,51,30.07,30.00,14,2,14,0.00
2013-8-18,93.2,87.4,80.0,78.4,77.0,75.2,88,72,60,30.07,29.99,16,3,16,0.10
2013-8-19,95.7,90.1,80.4,79.1,76.6,73.5,92,65,53,30.04,29.96,15,3,15,0.01
2013-8-20,95.8,89.5,80.3,77.3,75.4,72.2,86,64,49,30.05,29.99,16,3,16,0.00
2013-8-21,93.3,86.0,79.4,81.2,77.9,76.1,94,78,59,30.07,30.00,16,2,16,0.62
2013-8-22,93.1,88.0,84.5,77.6,76.7,75.2,78,70,60,30.00,29.95,11,2,11,0.11
2013-8-23,94.8,86.7,83.8,77.1,76.0,74.6,77,71,56,30.00,29.95,10,1,10,0.13
2013-8-24,94.7,86.7,84.2,76.8,76.1,75.0,78,71,54,30.07,30.01,11,2,14,0.01
2013-8-25,92.0,81.8,74.4,77.5,75.0,71.7,94,81,58,30.15,30.05,12,3,12,1.31
2013-8-26,95.1,84.2,78.9,76.7,74.0,70.7,88,72,52,30.09,30.01,21,2,21,0.00
2013-8-27,89.1,80.3,75.8,76.0,73.9,70.8,92,81,62,30.05,29.97,16,2,16,0.07
2013-8-28,93.2,82.0,73.5,76.8,74.1,71.2,94,78,53,30.05,29.95,16,2,16,0.18
2013-8-29,97.0,85.4,75.8,77.0,74.7,71.7,94,72,48,30.03,29.93,11,2,11,0.00
2013-8-30,96.5,84.8,77.3,76.1,74.0,68.2,94,72,45,30.02,29.90,14,2,14,0.00
2013-8-31,90.5,82.3,73.0,76.7,74.1,69.8,91,77,58,29.99,29.92,19,2,19,0.15
2013-9-1,93.3,81.7,75.5,79.7,76.3,72.6,97,85,56,30.01,29.94,10,1,10,0.03
2013-9-2,93.2,80.7,75.2,78.5,75.5,71.7,97,85,57,30.05,29.95,20,2,20,0.64
2013-9-3,88.3,82.1,73.9,79.4,76.3,72.5,96,83,68,30.04,29.94,15,1,15,0.61
2013-9-4,91.1,84.9,78.4,80.9,77.8,76.2,94,80,66,30.07,29.95,11,1,11,0.07
2013-9-5,96.0,86.0,77.1,79.8,77.1,74.2,97,76,52,30.07,30.00,13,1,13,0.18
2013-9-6,98.8,88.4,78.7,79.4,76.2,71.9,93,70,45,30.04,29.92,10,1,10,0.00
2013-9-7,91.9,81.5,76.6,77.7,74.4,70.7,90,80,56,29.99,29.91,16,2,16,0.00
2013-9-8,92.6,80.3,73.4,77.1,74.5,70.9,94,84,51,29.96,29.86,15,1,15,2.28
2013-9-9,95.0,86.1,75.7,77.2,74.8,72.2,94,71,51,29.99,29.90,14,2,14,2.28
2013-9-10,93.6,83.0,77.6,77.8,75.3,73.4,91,79,53,30.04,29.96,6,2,17,0.17
2013-9-11,88.7,81.8,77.4,78.0,75.6,72.8,93,82,70,30.04,29.97,24,2,24,0.11
2013-9-12,88.6,82.8,76.8,78.9,76.2,72.4,93,81,67,30.02,29.89,8,0,8,0.01
2013-9-13,97.5,83.7,75.9,77.4,74.5,69.4,96,76,46,29.91,29.81,4,1,9,0.00
2013-9-14,97.3,88.4,78.4,77.5,74.4,70.2,93,66,43,29.93,29.83,10,1,10,0.00
2013-9-15,85.7,80.0,76.3,79.6,76.6,73.2,95,89,79,30.06,29.93,4,1,17,0.98
2013-9-16,84.4,80.6,76.7,78.9,76.4,72.7,95,87,78,30.06,29.96,14,2,14,0.69
2013-9-17,87.4,79.0,75.8,77.7,75.7,73.2,95,90,73,30.02,29.92,9,1,13,0.20
2013-9-18,93.0,83.4,76.8,77.8,75.6,73.8,95,78,58,30.00,29.92,11,1,11,0.01
2013-9-19,94.2,83.3,75.6,79.0,75.4,72.6,96,78,56,30.01,29.93,17,2,17,0.97
2013-9-20,91.3,82.5,74.9,75.5,71.6,66.2,96,72,45,30.00,29.89,15,3,15,0.03
2013-9-21,91.7,83.1,75.4,77.6,74.1,71.9,90,75,57,29.92,29.77,10,1,10,0.00
2013-9-22,92.0,85.1,76.9,77.1,74.5,68.3,93,72,49,29.87,29.76,16,3,17,0.00
2013-9-23,90.0,81.3,77.0,78.5,76.9,72.7,94,87,66,29.98,29.87,25,1,25,0.25
2013-9-24,92.6,84.6,76.1,80.0,75.8,72.3,96,77,55,29.98,29.88,18,4,19,0.02
2013-9-25,87.8,81.7,76.5,79.3,76.1,71.1,93,83,73,29.92,29.82,22,4,22,0.41
2013-9-26,89.3,82.8,77.7,79.5,77.3,75.2,94,84,67,29.88,29.81,20,6,20,0.04
2013-9-27,91.5,81.9,75.7,77.3,73.7,68.0,95,78,50,29.92,29.83,15,3,15,0.00
2013-9-28,92.5,83.8,73.1,78.1,73.3,71.1,94,72,54,29.97,29.88,14,3,18,0.44
2013-9-29,94.2,84.3,73.3,75.0,71.7,67.6,96,69,44,29.97,29.87,11,2,11,0.14
2013-9-30,94.8,85.6,75.1,74.4,71.9,69.7,88,65,47,29.97,29.90,11,1,11,0.00
2013-10-1,93.2,86.0,76.8,75.3,72.5,70.5,88,65,51,30.02,29.96,17,3,17,0.00
2013-10-2,82.9,79.4,75.5,78.1,75.1,72.7,95,87,76,30.04,29.96,12,2,12,0.67
2013-10-3,88.5,81.3,75.0,77.6,74.8,72.5,96,81,68,30.06,29.95,13,1,13,0.32
2013-10-4,93.2,84.0,75.2,76.1,72.4,69.6,93,70,52,30.06,29.98,10,1,10,0.32
2013-10-5,94.8,84.6,74.2,73.7,71.0,64.0,91,66,41,30.04,29.93,13,2,13,0.00
2013-10-6,94.3,84.3,76.3,76.6,72.5,69.2,93,69,47,29.97,29.87,9,1,9,0.01
2013-10-7,91.0,81.7,74.8,75.2,73.0,70.6,92,76,54,29.91,29.82,21,4,21,0.10
2013-10-8,90.0,83.6,75.9,77.8,75.2,73.0,95,77,61,29.93,29.86,16,4,16,0.02
2013-10-9,85.7,79.2,74.7,76.8,74.3,70.8,92,85,72,30.00,29.91,16,4,16,0.11
2013-10-10,92.3,81.8,72.4,74.4,71.6,69.8,95,73,52,30.01,29.94,15,4,15,0.11
2013-10-11,91.5,80.8,71.9,71.7,69.2,66.4,91,70,48,30.02,29.94,13,2,13,0.00
2013-10-12,88.7,77.9,71.0,69.8,67.8,65.6,92,73,52,30.02,29.95,7,1,11,0.00
2013-10-13,89.2,80.8,73.9,72.2,67.6,63.0,92,66,45,30.05,29.96,16,3,16,0.00
2013-10-14,90.2,81.1,72.7,70.4,68.7,66.5,88,67,49,30.02,29.90,11,2,11,0.00
2013-10-15,90.4,80.8,72.7,72.3,70.4,68.5,92,72,52,29.96,29.87,12,3,12,0.00
2013-10-16,90.3,81.1,73.5,73.0,70.2,67.9,90,71,52,29.95,29.89,7,2,11,0.00
2013-10-17,92.8,81.1,73.4,73.3,71.4,69.2,94,74,50,29.97,29.89,10,1,10,0.00
2013-10-18,94.2,83.8,73.4,73.9,72.3,70.5,92,70,50,29.99,29.90,9,1,9,0.00
2013-10-19,93.2,84.4,74.2,75.2,73.4,71.1,91,71,55,29.97,29.88,11,2,11,0.00
2013-10-20,94.2,82.1,76.9,76.9,74.9,70.2,94,80,49,29.96,29.88,16,2,16,0.82
2013-10-21,94.5,83.9,76.9,77.9,75.3,73.0,94,76,56,30.01,29.91,11,2,11,0.01
2013-10-22,91.0,82.7,76.0,77.4,75.3,72.2,95,80,58,29.97,29.84,15,2,15,0.00
2013-10-23,85.8,81.6,77.6,77.2,73.8,68.8,93,78,68,29.96,29.83,15,4,15,0.02
2013-10-24,80.3,76.8,72.5,69.8,66.1,63.7,83,70,62,30.10,29.94,16,5,16,0.00
2013-10-25,85.3,77.6,70.2,67.1,64.7,62.2,83,66,49,30.15,30.07,19,5,19,0.00
2013-10-26,87.7,78.6,68.7,66.8,64.7,63.2,86,64,47,30.15,30.05,12,2,12,0.00
2013-10-27,87.3,78.1,68.3,65.7,63.5,61.2,80,62,44,30.10,30.02,12,2,12,0.00
2013-10-28,88.5,79.8,68.2,67.9,64.9,59.5,91,63,40,30.14,30.05,12,2,13,0.00
2013-10-29,88.7,80.0,69.5,70.3,67.8,65.6,90,68,52,30.17,30.09,18,3,18,0.00
2013-10-30,87.3,81.0,72.2,68.9,67.0,63.8,83,63,48,30.19,30.08,15,3,15,0.00
2013-10-31,88.7,80.1,72.7,73.3,70.4,66.0,89,73,56,30.12,30.00,17,2,17,0.01
2013-11-1,90.7,82.3,73.9,74.2,72.6,70.2,92,73,56,30.02,29.89,14,2,14,0.00
2013-11-2,88.8,80.3,72.0,73.8,70.7,64.4,96,74,49,29.95,29.81,16,3,16,0.00
2013-11-3,83.8,75.5,68.6,67.7,63.0,60.2,86,66,52,30.03,29.90,21,7,21,0.00
2013-11-4,75.6,74.8,74.0,63.0,61.8,60.7,66,64,63,30.02,30.00,5,3,15,0.00
2013-11-5,83.7,78.5,73.4,72.0,69.4,65.7,89,74,61,30.08,30.02,12,4,21,0.06
2013-11-6,87.8,79.7,73.2,72.2,69.9,68.4,86,73,56,30.06,29.99,15,3,15,0.00
2013-11-7,87.5,79.4,71.0,71.7,69.6,64.9,93,73,49,30.02,29.92,12,3,12,0.00
2013-11-8,86.7,78.3,70.8,72.0,69.1,64.4,91,75,52,30.04,29.95,18,4,18,0.27
2013-11-9,82.2,77.6,73.6,73.8,71.1,69.3,91,81,71,30.11,30.01,20,4,20,0.46
2013-11-10,86.2,80.3,73.7,71.2,68.8,66.4,86,69,54,30.12,30.04,16,3,16,0.64
2013-11-11,88.0,78.8,71.6,70.3,67.2,65.1,86,68,51,30.11,30.04,13,2,13,0.00
2013-11-12,88.0,77.6,70.5,69.4,66.7,63.7,88,70,48,30.08,29.97,15,2,15,0.00
2013-11-13,75.8,72.4,69.5,66.3,63.4,55.1,83,73,58,30.20,30.00,27,8,27,0.01
2013-11-14,79.0,73.7,68.9,61.2,57.1,53.3,67,56,49,30.24,30.13,19,4,22,0.00
2013-11-15,85.0,77.6,72.1,69.4,65.7,59.7,89,68,53,30.14,30.03,13,2,13,0.27
2013-11-16,82.0,78.1,73.8,70.8,67.2,60.6,88,70,53,30.10,30.01,15,1,15,0.16
2013-11-17,87.2,80.7,74.0,71.0,68.9,66.9,86,68,54,30.08,30.00,16,2,16,0.16
2013-11-18,87.0,78.9,71.0,71.9,69.6,67.9,91,74,56,30.03,29.92,7,1,7,0.00
2013-11-19,85.4,77.8,72.5,71.8,69.9,68.1,89,77,59,29.95,29.85,11,2,11,0.00
2013-11-20,86.1,78.9,71.1,73.2,70.3,68.3,92,76,61,30.06,29.93,13,1,13,0.03
2013-11-21,88.0,77.7,71.6,75.2,71.1,67.9,93,81,55,30.14,30.05,14,2,14,1.01
2013-11-22,84.7,78.3,72.7,71.8,69.7,68.0,92,75,61,30.15,30.06,16,3,16,0.74
2013-11-23,85.9,79.7,73.5,71.2,69.7,68.1,85,72,58,30.08,29.97,14,2,14,0.00
2013-11-24,82.8,75.1,69.7,69.0,66.1,62.7,89,75,55,30.14,29.99,20,5,20,0.02
2013-11-25,78.7,74.0,71.6,67.7,63.3,59.4,86,69,61,30.20,30.09,24,5,24,0.03
2013-11-26,84.8,79.2,72.2,73.3,71.7,67.9,89,78,66,30.05,29.84,21,5,21,0.07
2013-11-27,77.9,72.5,59.7,73.7,63.4,52.0,93,75,49,30.12,29.79,21,6,21,0.69
2013-11-28,76.4,62.9,49.0,59.0,52.2,44.2,85,69,52,30.25,30.12,19,5,19,0.00
2013-11-29,80.3,70.6,59.9,60.9,58.2,56.0,87,66,48,30.28,30.19,19,4,19,0.00
2013-11-30,77.8,68.0,61.4,68.5,62.2,58.2,90,82,68,30.21,30.12,19,4,19,0.19
2013-12-1,75.4,67.9,62.3,69.6,64.3,59.6,93,88,78,30.11,29.96,8,2,14,0.13
2013-12-2,75.6,68.1,63.5,65.8,62.1,56.2,94,82,53,29.95,29.83,14,4,14,0.01
2013-12-3,83.0,73.6,62.2,64.8,61.3,56.3,92,67,48,30.01,29.91,9,1,9,0.00
2013-12-4,86.0,75.9,65.5,67.4,64.7,62.3,92,70,48,30.10,29.99,11,1,11,0.00
2013-12-5,86.5,74.9,67.1,70.0,67.1,64.0,91,78,56,30.17,30.08,15,1,15,0.00
2013-12-6,85.4,78.9,70.9,69.6,67.1,63.8,84,68,53,30.19,30.09,12,2,16,0.00
2013-12-7,87.4,78.1,67.9,70.0,67.2,64.9,91,71,49,30.22,30.14,10,1,12,0.05
2013-12-8,85.8,77.0,69.4,70.2,67.6,64.5,90,74,52,30.21,30.12,16,2,16,0.01
2013-12-9,86.0,79.7,73.2,69.5,66.2,62.5,83,65,49,30.20,30.11,17,2,17,0.00
2013-12-10,88.3,79.3,70.7,71.0,69.4,66.7,90,73,53,30.17,30.08,11,1,11,0.00
2013-12-11,86.8,78.4,71.0,72.6,69.9,68.3,93,76,57,30.20,30.12,10,1,10,0.01
2013-12-12,80.0,72.5,64.2,70.1,65.2,58.0,92,78,65,30.23,30.14,19,6,19,0.00
2013-12-13,80.6,73.8,63.0,67.7,63.3,57.9,86,70,58,30.20,30.10,15,3,15,0.07
2013-12-14,84.8,78.7,73.7,71.2,69.5,67.2,86,74,60,30.11,29.99,16,3,16,0.04
2013-12-15,83.8,78.0,71.3,73.9,71.0,67.6,91,79,67,30.06,29.94,18,4,18,0.00
2013-12-16,74.0,68.7,64.1,66.8,59.7,57.0,86,73,64,30.16,30.04,13,5,16,0.00
2013-12-17,81.3,71.3,58.5,63.8,59.3,55.6,91,68,48,30.19,30.10,14,3,14,0.00
2013-12-18,78.1,68.4,61.2,58.5,56.5,52.5,89,67,47,30.25,30.15,12,5,17,0.00
2013-12-19,82.0,70.3,58.9,60.8,58.1,55.4,89,67,43,30.24,30.15,14,2,14,0.00
2013-12-20,85.0,78.0,66.0,68.6,66.6,60.6,84,69,52,30.19,30.10,15,2,15,0.00
2013-12-21,85.6,79.5,74.4,71.7,70.2,68.0,84,74,61,30.15,30.06,18,3,18,0.00
2013-12-22,85.6,80.1,76.0,71.8,70.0,68.5,84,72,60,30.16,30.08,13,4,18,0.00
2013-12-23,85.7,79.8,71.7,71.7,70.1,68.0,89,73,59,30.18,30.11,17,3,17,0.00
2013-12-24,82.3,72.8,67.5,71.1,66.4,59.4,93,81,61,30.18,30.08,20,5,20,0.01
2013-12-25,78.8,73.1,68.4,65.7,63.9,61.6,79,73,64,30.17,30.10,19,4,19,0.01
2013-12-26,80.3,76.2,72.9,69.7,67.9,65.7,85,76,67,30.17,30.07,12,2,12,0.00
2013-12-27,85.0,77.0,68.9,70.7,68.4,66.2,92,76,59,30.19,30.09,14,2,14,0.00
2013-12-28,81.2,77.7,74.6,71.0,69.6,67.0,84,76,68,30.18,30.02,16,3,16,0.00
2013-12-29,81.3,77.7,74.3,72.8,71.7,70.3,92,82,74,30.04,29.94,14,4,19,0.00
2013-12-30,80.3,73.9,67.5,71.7,68.1,64.3,93,83,69,30.15,29.99,14,3,14,0.00
2013-12-31,81.9,73.9,66.3,67.1,63.2,61.0,85,70,53,30.22,30.11,15,4,20,0.00
2014-1-1,84.3,76.6,72.9,73.3,70.0,62.8,90,81,60,30.19,30.05,12,2,15,0.14
2014-1-2,85.1,76.3,68.3,70.2,67.4,63.4,93,76,53,30.05,29.88,22,4,22,0.02